Walker Lake, Nevada
Current Conditions -  °F | °C
As of 3:52 PM on Friday 21 Nov 2014 (Local Time) from KBAN Reporting Station
Overcast Overcast  
Wind Chill: 43°   Ceiling: 6000
Heat Index: 48°   Visibility: NA
Dew Point:   Wind: 13mph
Humidity: 21%   Direction: 230°SW
Pressure: 30.04"   Gusts: NA
Location:  38.6331°N, 118.656°W
Report Text: KBAN 212352Z AUTO 23011KT OVC060 09/M13 A3004 RMK AO2 SLP170 T00891128 10122 20011 53013 $
Loading
Personal Weather Stations






























Interactive Weather Map New forecast layout! Learn more

10-Day Weather Forecast

Advertisements
Track Severe Weather on mobile